Airfield :
LOGIN :

Register | Disclaimer

   EN    FR    IT 

 










Legend :    VFR   Marginal VFR   IFR   Intensive IFR   Very Intensive IFR
Visi :
Ceiling :
>= 8 km
>= 3000ft
5 to 8 km
1000 to 3000 ft
1500m to 5 km
500 to 1000 ft
800 to 1500m
200 to 500 ft
< 800m
< 200 ft
Symbols :   Thunderstorms  Fog  Heavy snow  Heavy precipitations  Wind > 20 kt
SIGMETs :     Misc.  Thunderstorms  Icing  Turbulence  Mountain Waves  Volcanic Ashes






- Airport Elevation : 297 ft
- IATA code : UIP


LFRQ - Quimper Pluguffan

CURRENT METAR :
  • 150530Z AUTO 26011KT 9999 -RA SCT027/// BKN054/// BKN068/// ///CB 12/10 Q1006 TEMPO 24015G25KT TSRA BKN012CB

EXPIRED METARs :
  • 150500Z AUTO 26014G25KT 230V290 9999 -RA FEW013/// SCT050/// BKN062/// ///CB 11/10 Q1006
  • 150430Z AUTO 25016G26KT 9999 -RA BKN016/// BKN024/// OVC036/// ///CB 12/10 Q1006
  • 150400Z AUTO 25012KT 9999 SCT020/// BKN025/// BKN066/// ///TCU 12/10 Q1006
  • 150330Z AUTO 25010KT 9999 BKN016/// ///TCU 12/10 Q1005
  • 150300Z AUTO 26013KT 9999 BKN021 BKN043 12/10 Q1005

TAF TAF LFRQ
Valid from the 15 at 06:00 until the 16 at 06:00 UTC


150500Z 1506/1606 24015KT 9999 SCT016 BKN020
TEMPO 1506/1512 24015G25KT SHRA SCT014TCU
PROB40
TEMPO 1506/1509 TSRA BKN012CB
BECMG 1514/1516 20015G25KT -RA BKN010
TEMPO 1518/1606 20020G35KT 4000 RADZ OVC005



MET'MAP, your aeronautical weather chart ! - Copyright ORBIFLY December 2007 - Disclaimer

ORBIFLY MET'MAP TEAM :

Programming & Development : Alexandra Zaïnal
Concept & Development : Baudouin d'Aumeries
Co-Development & Prog : Marc-Olivier Méhu
Technical & hardware support : Manuel Goepfert

Contact : metmap@orbifly.com




SOURCES & CREDITS :

   NOAA